sensor_id;sensor_type;location;lat;lon;timestamp;pressure;altitude;pressure_sealevel;temperature
63009;BMP280;49099;28.428;-16.488;2023-02-01T00:00:32;98987.03;;;17.97
63009;BMP280;49099;28.428;-16.488;2023-02-01T00:03:01;98986.72;;;17.95
63009;BMP280;49099;28.428;-16.488;2023-02-01T00:05:28;98983.22;;;17.98
63009;BMP280;49099;28.428;-16.488;2023-02-01T00:07:55;98992.34;;;17.97
63009;BMP280;49099;28.428;-16.488;2023-02-01T00:10:22;98996.16;;;17.96
63009;BMP280;49099;28.428;-16.488;2023-02-01T00:12:50;98990.13;;;17.96
63009;BMP280;49099;28.428;-16.488;2023-02-01T00:15:17;98980.41;;;17.93
63009;BMP280;49099;28.428;-16.488;2023-02-01T00:17:44;98980.56;;;17.89
63009;BMP280;49099;28.428;-16.488;2023-02-01T00:20:11;98990.88;;;17.87
63009;BMP280;49099;28.428;-16.488;2023-02-01T00:22:38;98985.25;;;17.85
63009;BMP280;49099;28.428;-16.488;2023-02-01T00:25:06;98976.13;;;17.86
63009;BMP280;49099;28.428;-16.488;2023-02-01T00:27:33;98982.31;;;17.83
63009;BMP280;49099;28.428;-16.488;2023-02-01T00:30:00;98976.59;;;17.85
63009;BMP280;49099;28.428;-16.488;2023-02-01T00:32:27;98973.19;;;17.84
63009;BMP280;49099;28.428;-16.488;2023-02-01T00:34:55;98965.06;;;17.79
63009;BMP280;49099;28.428;-16.488;2023-02-01T00:37:22;98963.59;;;17.78
63009;BMP280;49099;28.428;-16.488;2023-02-01T00:39:49;98972.00;;;17.76
63009;BMP280;49099;28.428;-16.488;2023-02-01T00:42:17;98963.75;;;17.74
63009;BMP280;49099;28.428;-16.488;2023-02-01T00:44:44;98962.59;;;17.75
63009;BMP280;49099;28.428;-16.488;2023-02-01T00:47:11;98963.28;;;17.76
63009;BMP280;49099;28.428;-16.488;2023-02-01T00:49:38;98962.09;;;17.77
63009;BMP280;49099;28.428;-16.488;2023-02-01T00:52:05;98963.16;;;17.79
63009;BMP280;49099;28.428;-16.488;2023-02-01T00:54:33;98956.94;;;17.82
63009;BMP280;49099;28.428;-16.488;2023-02-01T00:57:00;98962.84;;;17.86
63009;BMP280;49099;28.428;-16.488;2023-02-01T00:59:27;98962.25;;;17.91
63009;BMP280;49099;28.428;-16.488;2023-02-01T01:01:54;98968.72;;;17.90
63009;BMP280;49099;28.428;-16.488;2023-02-01T01:04:21;98970.81;;;17.86
63009;BMP280;49099;28.428;-16.488;2023-02-01T01:06:48;98959.44;;;17.86
63009;BMP280;49099;28.428;-16.488;2023-02-01T01:09:15;98964.00;;;17.85
63009;BMP280;49099;28.428;-16.488;2023-02-01T01:11:42;98956.50;;;17.84
63009;BMP280;49099;28.428;-16.488;2023-02-01T01:14:10;98960.75;;;17.90
63009;BMP280;49099;28.428;-16.488;2023-02-01T01:16:38;98956.47;;;17.93
63009;BMP280;49099;28.428;-16.488;2023-02-01T01:19:05;98955.13;;;17.97
63009;BMP280;49099;28.428;-16.488;2023-02-01T01:21:32;98948.94;;;18.00
63009;BMP280;49099;28.428;-16.488;2023-02-01T01:23:59;98953.63;;;17.96
63009;BMP280;49099;28.428;-16.488;2023-02-01T01:26:28;98960.63;;;17.94
63009;BMP280;49099;28.428;-16.488;2023-02-01T01:28:56;98954.97;;;17.92
63009;BMP280;49099;28.428;-16.488;2023-02-01T01:31:25;98949.84;;;17.88
63009;BMP280;49099;28.428;-16.488;2023-02-01T01:33:55;98947.47;;;17.81
63009;BMP280;49099;28.428;-16.488;2023-02-01T01:36:23;98949.13;;;17.79
63009;BMP280;49099;28.428;-16.488;2023-02-01T01:38:50;98946.91;;;17.77
63009;BMP280;49099;28.428;-16.488;2023-02-01T01:41:29;98954.63;;;17.75
63009;BMP280;49099;28.428;-16.488;2023-02-01T01:44:03;98944.56;;;17.70
63009;BMP280;49099;28.428;-16.488;2023-02-01T01:46:35;98945.44;;;17.67
63009;BMP280;49099;28.428;-16.488;2023-02-01T01:49:30;98945.44;;;17.67
63009;BMP280;49099;28.428;-16.488;2023-02-01T01:52:00;98943.97;;;17.66
63009;BMP280;49099;28.428;-16.488;2023-02-01T01:54:33;98948.09;;;17.67
63009;BMP280;49099;28.428;-16.488;2023-02-01T01:57:06;98951.50;;;17.68
63009;BMP280;49099;28.428;-16.488;2023-02-01T01:59:35;98938.38;;;17.64
63009;BMP280;49099;28.428;-16.488;2023-02-01T02:02:03;98941.91;;;17.61
63009;BMP280;49099;28.428;-16.488;2023-02-01T02:04:32;98941.19;;;17.61
63009;BMP280;49099;28.428;-16.488;2023-02-01T02:07:04;98937.78;;;17.60
63009;BMP280;49099;28.428;-16.488;2023-02-01T02:09:32;98940.72;;;17.62
63009;BMP280;49099;28.428;-16.488;2023-02-01T02:11:59;98937.94;;;17.66
63009;BMP280;49099;28.428;-16.488;2023-02-01T02:14:26;98941.91;;;17.70
63009;BMP280;49099;28.428;-16.488;2023-02-01T02:34:17;98944.25;;;17.77
63009;BMP280;49099;28.428;-16.488;2023-02-01T02:41:02;98937.34;;;17.80
63009;BMP280;49099;28.428;-16.488;2023-02-01T02:43:10;98933.78;;;17.74
63009;BMP280;49099;28.428;-16.488;2023-02-01T02:46:12;98923.59;;;17.72
63009;BMP280;49099;28.428;-16.488;2023-02-01T02:52:02;98910.91;;;17.67
63009;BMP280;49099;28.428;-16.488;2023-02-01T02:54:50;98913.28;;;17.65
63009;BMP280;49099;28.428;-16.488;2023-02-01T02:57:33;98917.56;;;17.63
63009;BMP280;49099;28.428;-16.488;2023-02-01T03:00:22;98902.06;;;17.61
63009;BMP280;49099;28.428;-16.488;2023-02-01T03:03:09;98911.38;;;17.57
63009;BMP280;49099;28.428;-16.488;2023-02-01T03:05:56;98909.91;;;17.56
63009;BMP280;49099;28.428;-16.488;2023-02-01T03:08:25;98902.66;;;17.56
63009;BMP280;49099;28.428;-16.488;2023-02-01T03:11:08;98893.97;;;17.56
63009;BMP280;49099;28.428;-16.488;2023-02-01T03:21:24;98901.66;;;17.36
63009;BMP280;49099;28.428;-16.488;2023-02-01T03:23:56;98904.78;;;17.34
63009;BMP280;49099;28.428;-16.488;2023-02-01T03:26:27;98901.09;;;17.32
63009;BMP280;49099;28.428;-16.488;2023-02-01T03:29:07;98904.16;;;17.30
63009;BMP280;49099;28.428;-16.488;2023-02-01T03:31:35;98895.78;;;17.32
63009;BMP280;49099;28.428;-16.488;2023-02-01T03:34:03;98901.50;;;17.30
63009;BMP280;49099;28.428;-16.488;2023-02-01T03:36:53;98899.31;;;17.29
63009;BMP280;49099;28.428;-16.488;2023-02-01T03:39:39;98897.97;;;17.33
63009;BMP280;49099;28.428;-16.488;2023-02-01T03:42:14;98904.59;;;17.38
63009;BMP280;49099;28.428;-16.488;2023-02-01T03:47:36;98895.91;;;17.46
63009;BMP280;49099;28.428;-16.488;2023-02-01T03:50:07;98895.47;;;17.48
63009;BMP280;49099;28.428;-16.488;2023-02-01T03:52:38;98880.56;;;17.50
63009;BMP280;49099;28.428;-16.488;2023-02-01T03:55:07;98880.56;;;17.50
63009;BMP280;49099;28.428;-16.488;2023-02-01T03:57:38;98869.19;;;17.50
63009;BMP280;49099;28.428;-16.488;2023-02-01T04:00:17;98876.88;;;17.48
63009;BMP280;49099;28.428;-16.488;2023-02-01T04:02:45;98871.69;;;17.44
63009;BMP280;49099;28.428;-16.488;2023-02-01T04:05:12;98861.38;;;17.37
63009;BMP280;49099;28.428;-16.488;2023-02-01T04:07:39;98864.94;;;17.34
63009;BMP280;49099;28.428;-16.488;2023-02-01T04:10:07;98857.56;;;17.29
63009;BMP280;49099;28.428;-16.488;2023-02-01T04:12:34;98868.19;;;17.20
63009;BMP280;49099;28.428;-16.488;2023-02-01T04:15:02;98860.53;;;17.13
63009;BMP280;49099;28.428;-16.488;2023-02-01T04:17:30;98864.25;;;17.07
63009;BMP280;49099;28.428;-16.488;2023-02-01T04:19:57;98865.09;;;17.04
63009;BMP280;49099;28.428;-16.488;2023-02-01T04:22:24;98867.31;;;16.96
63009;BMP280;49099;28.428;-16.488;2023-02-01T04:24:51;98861.13;;;16.90
63009;BMP280;49099;28.428;-16.488;2023-02-01T04:27:18;98859.34;;;16.87
63009;BMP280;49099;28.428;-16.488;2023-02-01T04:29:45;98870.53;;;16.82
63009;BMP280;49099;28.428;-16.488;2023-02-01T04:32:12;98861.53;;;16.80
63009;BMP280;49099;28.428;-16.488;2023-02-01T04:34:39;98861.53;;;16.80
63009;BMP280;49099;28.428;-16.488;2023-02-01T04:37:06;98860.81;;;16.79
63009;BMP280;49099;28.428;-16.488;2023-02-01T04:39:34;98863.03;;;16.81
63009;BMP280;49099;28.428;-16.488;2023-02-01T04:42:01;98866.69;;;16.83
63009;BMP280;49099;28.428;-16.488;2023-02-01T04:44:28;98864.34;;;16.85
63009;BMP280;49099;28.428;-16.488;2023-02-01T04:46:55;98858.75;;;16.83
63009;BMP280;49099;28.428;-16.488;2023-02-01T04:49:22;98857.72;;;16.81
63009;BMP280;49099;28.428;-16.488;2023-02-01T04:51:49;98868.34;;;16.81
63009;BMP280;49099;28.428;-16.488;2023-02-01T04:54:16;98864.06;;;16.83
63009;BMP280;49099;28.428;-16.488;2023-02-01T04:56:43;98872.00;;;16.83
63009;BMP280;49099;28.428;-16.488;2023-02-01T04:59:11;98870.09;;;16.84
63009;BMP280;49099;28.428;-16.488;2023-02-01T05:01:38;98866.00;;;16.83
63009;BMP280;49099;28.428;-16.488;2023-02-01T05:04:05;98867.59;;;16.80
63009;BMP280;49099;28.428;-16.488;2023-02-01T05:06:32;98868.63;;;16.83
63009;BMP280;49099;28.428;-16.488;2023-02-01T05:09:00;98865.25;;;16.82
63009;BMP280;49099;28.428;-16.488;2023-02-01T05:11:29;98872.91;;;16.80
63009;BMP280;49099;28.428;-16.488;2023-02-01T05:14:15;98867.75;;;16.77
63009;BMP280;49099;28.428;-16.488;2023-02-01T05:16:45;98870.81;;;16.75
63009;BMP280;49099;28.428;-16.488;2023-02-01T05:19:12;98876.13;;;16.75
63009;BMP280;49099;28.428;-16.488;2023-02-01T05:21:39;98876.47;;;16.77
63009;BMP280;49099;28.428;-16.488;2023-02-01T05:24:08;98876.72;;;16.79
63009;BMP280;49099;28.428;-16.488;2023-02-01T05:26:48;98870.53;;;16.82
63009;BMP280;49099;28.428;-16.488;2023-02-01T05:29:16;98873.19;;;16.91
63009;BMP280;49099;28.428;-16.488;2023-02-01T05:31:45;98872.31;;;16.94
63009;BMP280;49099;28.428;-16.488;2023-02-01T05:34:13;98869.97;;;16.96
63009;BMP280;49099;28.428;-16.488;2023-02-01T05:36:41;98869.06;;;16.99
63009;BMP280;49099;28.428;-16.488;2023-02-01T05:39:08;98873.53;;;17.02
63009;BMP280;49099;28.428;-16.488;2023-02-01T05:41:35;98865.84;;;17.04
63009;BMP280;49099;28.428;-16.488;2023-02-01T05:44:03;98869.97;;;17.05
63009;BMP280;49099;28.428;-16.488;2023-02-01T05:46:30;98862.91;;;17.02
63009;BMP280;49099;28.428;-16.488;2023-02-01T05:48:57;98863.94;;;17.05
63009;BMP280;49099;28.428;-16.488;2023-02-01T05:51:24;98868.22;;;17.02
63009;BMP280;49099;28.428;-16.488;2023-02-01T05:53:52;98870.53;;;17.00
63009;BMP280;49099;28.428;-16.488;2023-02-01T05:56:19;98872.91;;;16.98
63009;BMP280;49099;28.428;-16.488;2023-02-01T05:58:46;98872.91;;;16.98
63009;BMP280;49099;28.428;-16.488;2023-02-01T06:01:13;98867.47;;;17.02
63009;BMP280;49099;28.428;-16.488;2023-02-01T06:03:40;98871.16;;;17.04
63009;BMP280;49099;28.428;-16.488;2023-02-01T06:06:07;98866.88;;;17.07
63009;BMP280;49099;28.428;-16.488;2023-02-01T06:08:34;98877.63;;;17.03
63009;BMP280;49099;28.428;-16.488;2023-02-01T06:11:04;98874.38;;;16.99
63009;BMP280;49099;28.428;-16.488;2023-02-01T06:13:32;98877.63;;;16.94
63009;BMP280;49099;28.428;-16.488;2023-02-01T06:16:02;98876.47;;;16.95
63009;BMP280;49099;28.428;-16.488;2023-02-01T06:18:30;98881.47;;;16.93
63009;BMP280;49099;28.428;-16.488;2023-02-01T06:20:58;98872.31;;;16.94
63009;BMP280;49099;28.428;-16.488;2023-02-01T06:23:29;98877.34;;;16.92
63009;BMP280;49099;28.428;-16.488;2023-02-01T06:26:02;98871.16;;;16.86
63009;BMP280;49099;28.428;-16.488;2023-02-01T06:28:31;98873.19;;;16.82
63009;BMP280;49099;28.428;-16.488;2023-02-01T06:31:03;98873.63;;;16.81
63009;BMP280;49099;28.428;-16.488;2023-02-01T06:33:30;98877.16;;;16.78
63009;BMP280;49099;28.428;-16.488;2023-02-01T06:35:58;98884.09;;;16.75
63009;BMP280;49099;28.428;-16.488;2023-02-01T06:38:26;98881.59;;;16.72
63009;BMP280;49099;28.428;-16.488;2023-02-01T06:40:55;98888.81;;;16.71
63009;BMP280;49099;28.428;-16.488;2023-02-01T06:43:23;98888.81;;;16.71
63009;BMP280;49099;28.428;-16.488;2023-02-01T06:45:51;98896.75;;;16.71
63009;BMP280;49099;28.428;-16.488;2023-02-01T06:48:19;98903.25;;;16.70
63009;BMP280;49099;28.428;-16.488;2023-02-01T06:50:46;98897.63;;;16.68
63009;BMP280;49099;28.428;-16.488;2023-02-01T06:53:13;98905.28;;;16.66
63009;BMP280;49099;28.428;-16.488;2023-02-01T06:55:40;98918.41;;;16.61
63009;BMP280;49099;28.428;-16.488;2023-02-01T06:58:07;98913.94;;;16.57
63009;BMP280;49099;28.428;-16.488;2023-02-01T07:00:34;98916.16;;;16.59
63009;BMP280;49099;28.428;-16.488;2023-02-01T07:03:01;98910.84;;;16.59
63009;BMP280;49099;28.428;-16.488;2023-02-01T07:05:29;98925.16;;;16.62
63009;BMP280;49099;28.428;-16.488;2023-02-01T07:07:56;98925.34;;;16.67
63009;BMP280;49099;28.428;-16.488;2023-02-01T07:10:23;98929.03;;;16.70
63009;BMP280;49099;28.428;-16.488;2023-02-01T07:12:50;98932.44;;;16.70
63009;BMP280;49099;28.428;-16.488;2023-02-01T07:15:17;98929.34;;;16.72
63009;BMP280;49099;28.428;-16.488;2023-02-01T07:17:44;98930.09;;;16.72
63009;BMP280;49099;28.428;-16.488;2023-02-01T07:20:13;98927.72;;;16.74
63009;BMP280;49099;28.428;-16.488;2023-02-01T07:22:40;98933.31;;;16.76
63009;BMP280;49099;28.428;-16.488;2023-02-01T07:25:08;98938.63;;;16.76
63009;BMP280;49099;28.428;-16.488;2023-02-01T07:27:35;98945.72;;;16.79
63009;BMP280;49099;28.428;-16.488;2023-02-01T07:30:04;98950.28;;;16.79
63009;BMP280;49099;28.428;-16.488;2023-02-01T07:32:31;98951.00;;;16.79
63009;BMP280;49099;28.428;-16.488;2023-02-01T07:34:58;98953.97;;;16.81
63009;BMP280;49099;28.428;-16.488;2023-02-01T07:37:26;98954.25;;;16.83
63009;BMP280;49099;28.428;-16.488;2023-02-01T07:39:53;98953.06;;;16.84
63009;BMP280;49099;28.428;-16.488;2023-02-01T07:42:20;98956.91;;;16.83
63009;BMP280;49099;28.428;-16.488;2023-02-01T07:44:47;98953.97;;;16.81
63009;BMP280;49099;28.428;-16.488;2023-02-01T07:47:14;98948.94;;;16.83
63009;BMP280;49099;28.428;-16.488;2023-02-01T07:49:41;98946.16;;;16.87
63009;BMP280;49099;28.428;-16.488;2023-02-01T07:52:08;98951.03;;;16.88
63009;BMP280;49099;28.428;-16.488;2023-02-01T07:54:37;98946.03;;;16.90
63009;BMP280;49099;28.428;-16.488;2023-02-01T07:57:04;98955.16;;;16.89
63009;BMP280;49099;28.428;-16.488;2023-02-01T07:59:32;98952.22;;;16.87
63009;BMP280;49099;28.428;-16.488;2023-02-01T08:01:59;98959.72;;;16.89
63009;BMP280;49099;28.428;-16.488;2023-02-01T08:04:30;98953.69;;;16.88
63009;BMP280;49099;28.428;-16.488;2023-02-01T08:06:59;98955.88;;;16.90
63009;BMP280;49099;28.428;-16.488;2023-02-01T08:09:26;98959.59;;;16.92
63009;BMP280;49099;28.428;-16.488;2023-02-01T08:11:53;98957.22;;;16.94
63009;BMP280;49099;28.428;-16.488;2023-02-01T08:14:20;98957.13;;;16.98
63009;BMP280;49099;28.428;-16.488;2023-02-01T08:16:47;98959.44;;;16.96
63009;BMP280;49099;28.428;-16.488;2023-02-01T08:19:15;98961.78;;;16.94
63009;BMP280;49099;28.428;-16.488;2023-02-01T08:21:42;98969.47;;;16.92
63009;BMP280;49099;28.428;-16.488;2023-02-01T08:24:09;98964.16;;;16.92
63009;BMP280;49099;28.428;-16.488;2023-02-01T08:26:37;98968.72;;;16.91
63009;BMP280;49099;28.428;-16.488;2023-02-01T08:29:07;98969.91;;;16.90
63009;BMP280;49099;28.428;-16.488;2023-02-01T08:31:34;98975.06;;;16.94
63009;BMP280;49099;28.428;-16.488;2023-02-01T08:34:03;98975.22;;;16.99
63009;BMP280;49099;28.428;-16.488;2023-02-01T08:36:32;98975.41;;;17.05
63009;BMP280;49099;28.428;-16.488;2023-02-01T08:39:00;98977.03;;;17.11
63009;BMP280;49099;28.428;-16.488;2023-02-01T08:41:29;98974.38;;;17.20
63009;BMP280;49099;28.428;-16.488;2023-02-01T08:43:57;98976.47;;;17.25
63009;BMP280;49099;28.428;-16.488;2023-02-01T08:46:24;98983.50;;;17.28
63009;BMP280;49099;28.428;-16.488;2023-02-01T08:48:52;98985.75;;;17.30
63009;BMP280;49099;28.428;-16.488;2023-02-01T08:51:20;98985.31;;;17.31
63009;BMP280;49099;28.428;-16.488;2023-02-01T08:53:48;98988.81;;;17.37
63009;BMP280;49099;28.428;-16.488;2023-02-01T08:56:16;98992.38;;;17.43
63009;BMP280;49099;28.428;-16.488;2023-02-01T08:58:44;98995.94;;;17.49
63009;BMP280;49099;28.428;-16.488;2023-02-01T09:01:14;98997.84;;;17.58
63009;BMP280;49099;28.428;-16.488;2023-02-01T09:03:42;98994.59;;;17.63
63009;BMP280;49099;28.428;-16.488;2023-02-01T09:06:11;98996.38;;;17.66
63009;BMP280;49099;28.428;-16.488;2023-02-01T09:08:39;99001.81;;;17.71
63009;BMP280;49099;28.428;-16.488;2023-02-01T09:11:10;99003.47;;;17.78
63009;BMP280;49099;28.428;-16.488;2023-02-01T09:13:38;98996.81;;;17.82
63009;BMP280;49099;28.428;-16.488;2023-02-01T09:16:05;99008.00;;;17.86
63009;BMP280;49099;28.428;-16.488;2023-02-01T09:18:33;99003.44;;;17.87
63009;BMP280;49099;28.428;-16.488;2023-02-01T09:21:05;99010.38;;;17.93
63009;BMP280;49099;28.428;-16.488;2023-02-01T09:23:33;99013.59;;;17.97
63009;BMP280;49099;28.428;-16.488;2023-02-01T09:26:02;99016.13;;;18.01
63009;BMP280;49099;28.428;-16.488;2023-02-01T09:28:30;99029.72;;;18.03
63009;BMP280;49099;28.428;-16.488;2023-02-01T09:30:58;99034.41;;;18.08
63009;BMP280;49099;28.428;-16.488;2023-02-01T09:33:26;99035.44;;;18.10
63009;BMP280;49099;28.428;-16.488;2023-02-01T09:36:01;99034.84;;;18.15
63009;BMP280;49099;28.428;-16.488;2023-02-01T09:38:29;99042.22;;;18.20
63009;BMP280;49099;28.428;-16.488;2023-02-01T09:40:58;99042.78;;;18.24
63009;BMP280;49099;28.428;-16.488;2023-02-01T09:43:41;99039.84;;;18.23
63009;BMP280;49099;28.428;-16.488;2023-02-01T09:46:31;99044.56;;;18.27
63009;BMP280;49099;28.428;-16.488;2023-02-01T09:49:20;99049.28;;;18.33
63009;BMP280;49099;28.428;-16.488;2023-02-01T09:51:51;99046.00;;;18.38
63009;BMP280;49099;28.428;-16.488;2023-02-01T09:54:22;99051.75;;;18.45
63009;BMP280;49099;28.428;-16.488;2023-02-01T09:59:34;99059.25;;;18.56
63009;BMP280;49099;28.428;-16.488;2023-02-01T10:02:31;99051.84;;;18.60
63009;BMP280;49099;28.428;-16.488;2023-02-01T10:04:59;99053.16;;;18.64
63009;BMP280;49099;28.428;-16.488;2023-02-01T10:10:10;99058.63;;;18.61
63009;BMP280;49099;28.428;-16.488;2023-02-01T10:13:41;99051.84;;;18.60
63009;BMP280;49099;28.428;-16.488;2023-02-01T10:16:22;99052.44;;;18.55
63009;BMP280;49099;28.428;-16.488;2023-02-01T10:21:42;99056.31;;;18.45
63009;BMP280;49099;28.428;-16.488;2023-02-01T10:27:30;99049.53;;;18.44
63009;BMP280;49099;28.428;-16.488;2023-02-01T10:30:06;99057.66;;;18.40
63009;BMP280;49099;28.428;-16.488;2023-02-01T10:32:39;99051.00;;;18.45
63009;BMP280;49099;28.428;-16.488;2023-02-01T10:35:18;99059.28;;;18.47
63009;BMP280;49099;28.428;-16.488;2023-02-01T10:37:47;99064.00;;;18.43
63009;BMP280;49099;28.428;-16.488;2023-02-01T10:40:33;99070.84;;;18.35
63009;BMP280;49099;28.428;-16.488;2023-02-01T10:43:01;99069.09;;;18.32
63009;BMP280;49099;28.428;-16.488;2023-02-01T10:45:32;99074.69;;;18.24
63009;BMP280;49099;28.428;-16.488;2023-02-01T10:48:02;99076.19;;;18.26
63009;BMP280;49099;28.428;-16.488;2023-02-01T10:50:38;99083.25;;;18.28
63009;BMP280;49099;28.428;-16.488;2023-02-01T10:55:48;99079.69;;;18.41
63009;BMP280;49099;28.428;-16.488;2023-02-01T10:58:21;99081.16;;;18.42
63009;BMP280;49099;28.428;-16.488;2023-02-01T11:00:55;99083.81;;;18.42
63009;BMP280;49099;28.428;-16.488;2023-02-01T11:03:33;99091.66;;;18.45
63009;BMP280;49099;28.428;-16.488;2023-02-01T11:06:03;99079.97;;;18.43
63009;BMP280;49099;28.428;-16.488;2023-02-01T11:08:49;99083.56;;;18.40
63009;BMP280;49099;28.428;-16.488;2023-02-01T11:11:16;99091.53;;;18.40
63009;BMP280;49099;28.428;-16.488;2023-02-01T11:13:52;99089.28;;;18.38
63009;BMP280;49099;28.428;-16.488;2023-02-01T11:16:20;99095.22;;;18.42
63009;BMP280;49099;28.428;-16.488;2023-02-01T11:18:53;99091.19;;;18.47
63009;BMP280;49099;28.428;-16.488;2023-02-01T11:21:21;99091.78;;;18.51
63009;BMP280;49099;28.428;-16.488;2023-02-01T11:23:49;99087.34;;;18.48
63009;BMP280;49099;28.428;-16.488;2023-02-01T11:26:25;99082.94;;;18.45
63009;BMP280;49099;28.428;-16.488;2023-02-01T11:29:11;99076.44;;;18.46
63009;BMP280;49099;28.428;-16.488;2023-02-01T11:31:40;99081.44;;;18.53
63009;BMP280;49099;28.428;-16.488;2023-02-01T11:34:19;99076.38;;;18.55
63009;BMP280;49099;28.428;-16.488;2023-02-01T11:36:49;99065.47;;;18.53
63009;BMP280;49099;28.428;-16.488;2023-02-01T11:42:06;99065.91;;;18.51
63009;BMP280;49099;28.428;-16.488;2023-02-01T11:44:44;99056.31;;;18.54
63009;BMP280;49099;28.428;-16.488;2023-02-01T11:47:28;99043.03;;;18.54
63009;BMP280;49099;28.428;-16.488;2023-02-01T11:49:57;99038.28;;;18.58
63009;BMP280;49099;28.428;-16.488;2023-02-01T12:04:54;98996.41;;;18.91
63009;BMP280;49099;28.428;-16.488;2023-02-01T12:07:13;98998.16;;;18.94
63009;BMP280;49099;28.428;-16.488;2023-02-01T12:12:41;98992.84;;;18.94
63009;BMP280;49099;28.428;-16.488;2023-02-01T12:34:36;98968.59;;;18.92
63009;BMP280;49099;28.428;-16.488;2023-02-01T12:42:36;98974.19;;;18.94
63009;BMP280;49099;28.428;-16.488;2023-02-01T12:45:41;98964.09;;;18.98
63009;BMP280;49099;28.428;-16.488;2023-02-01T12:50:52;98969.69;;;19.00
63009;BMP280;49099;28.428;-16.488;2023-02-01T12:53:46;98962.44;;;19.00
63009;BMP280;49099;28.428;-16.488;2023-02-01T12:56:25;98965.97;;;19.06
63009;BMP280;49099;28.428;-16.488;2023-02-01T12:58:56;98960.28;;;18.99
63009;BMP280;49099;28.428;-16.488;2023-02-01T13:01:34;98953.09;;;19.05
63009;BMP280;49099;28.428;-16.488;2023-02-01T13:07:10;98947.44;;;19.12
63009;BMP280;49099;28.428;-16.488;2023-02-01T13:12:37;98939.66;;;19.08
63009;BMP280;49099;28.428;-16.488;2023-02-01T13:15:09;98938.63;;;19.06
63009;BMP280;49099;28.428;-16.488;2023-02-01T13:17:39;98936.56;;;19.01
63009;BMP280;49099;28.428;-16.488;2023-02-01T13:20:29;98930.72;;;19.11
63009;BMP280;49099;28.428;-16.488;2023-02-01T13:28:05;98915.91;;;19.34
63009;BMP280;49099;28.428;-16.488;2023-02-01T13:33:32;98909.84;;;19.33
63009;BMP280;49099;28.428;-16.488;2023-02-01T13:39:34;98907.91;;;19.34
63009;BMP280;49099;28.428;-16.488;2023-02-01T13:44:44;98898.34;;;19.42
63009;BMP280;49099;28.428;-16.488;2023-02-01T13:47:39;98902.13;;;19.64
63009;BMP280;49099;28.428;-16.488;2023-02-01T13:52:55;98901.19;;;19.53
63009;BMP280;49099;28.428;-16.488;2023-02-01T13:55:30;98903.75;;;19.33
63009;BMP280;49099;28.428;-16.488;2023-02-01T13:58:05;98905.06;;;19.37
63009;BMP280;49099;28.428;-16.488;2023-02-01T14:00:37;98899.53;;;19.55
63009;BMP280;49099;28.428;-16.488;2023-02-01T14:10:48;98889.78;;;19.67
63009;BMP280;49099;28.428;-16.488;2023-02-01T14:21:27;98885.28;;;19.15
63009;BMP280;49099;28.428;-16.488;2023-02-01T14:23:58;98882.09;;;19.25
63009;BMP280;49099;28.428;-16.488;2023-02-01T14:26:44;98883.00;;;19.37
63009;BMP280;49099;28.428;-16.488;2023-02-01T14:32:06;98884.03;;;19.54
63009;BMP280;49099;28.428;-16.488;2023-02-01T14:58:56;98868.31;;;19.27
63009;BMP280;49099;28.428;-16.488;2023-02-01T15:01:36;98863.91;;;19.38
63009;BMP280;49099;28.428;-16.488;2023-02-01T15:07:26;98872.72;;;19.59
63009;BMP280;49099;28.428;-16.488;2023-02-01T15:09:37;98872.03;;;19.78
63009;BMP280;49099;28.428;-16.488;2023-02-01T15:12:16;98868.16;;;19.94
63009;BMP280;49099;28.428;-16.488;2023-02-01T15:15:11;98877.25;;;20.02
63009;BMP280;49099;28.428;-16.488;2023-02-01T15:17:40;98878.81;;;19.94
63009;BMP280;49099;28.428;-16.488;2023-02-01T15:20:17;98882.75;;;19.98
63009;BMP280;49099;28.428;-16.488;2023-02-01T15:23:04;98875.34;;;20.08
63009;BMP280;49099;28.428;-16.488;2023-02-01T15:25:36;98878.88;;;20.14
63009;BMP280;49099;28.428;-16.488;2023-02-01T15:28:08;98878.69;;;20.03
63009;BMP280;49099;28.428;-16.488;2023-02-01T15:30:37;98874.19;;;20.09
63009;BMP280;49099;28.428;-16.488;2023-02-01T15:35:53;98889.84;;;20.22
63009;BMP280;49099;28.428;-16.488;2023-02-01T15:40:57;98880.72;;;20.28
63009;BMP280;49099;28.428;-16.488;2023-02-01T15:43:25;98879.06;;;20.31
63009;BMP280;49099;28.428;-16.488;2023-02-01T15:45:58;98877.00;;;20.20
63009;BMP280;49099;28.428;-16.488;2023-02-01T15:48:27;98890.41;;;20.26
63009;BMP280;49099;28.428;-16.488;2023-02-01T15:50:56;98879.56;;;20.14
63009;BMP280;49099;28.428;-16.488;2023-02-01T15:53:25;98884.19;;;20.14
63009;BMP280;49099;28.428;-16.488;2023-02-01T15:56:00;98890.66;;;20.07
63009;BMP280;49099;28.428;-16.488;2023-02-01T15:58:28;98893.25;;;20.02
63009;BMP280;49099;28.428;-16.488;2023-02-01T16:01:03;98883.97;;;20.17
63009;BMP280;49099;28.428;-16.488;2023-02-01T16:03:35;98885.94;;;20.37
63009;BMP280;49099;28.428;-16.488;2023-02-01T16:09:11;98877.81;;;20.46
63009;BMP280;49099;28.428;-16.488;2023-02-01T16:12:00;98880.34;;;20.55
63009;BMP280;49099;28.428;-16.488;2023-02-01T16:14:27;98884.06;;;20.63
63009;BMP280;49099;28.428;-16.488;2023-02-01T16:16:57;98886.06;;;20.68
63009;BMP280;49099;28.428;-16.488;2023-02-01T16:19:24;98870.44;;;20.81
63009;BMP280;49099;28.428;-16.488;2023-02-01T16:21:55;98886.25;;;20.85
63009;BMP280;49099;28.428;-16.488;2023-02-01T16:24:22;98873.31;;;20.38
63009;BMP280;49099;28.428;-16.488;2023-02-01T16:26:52;98885.47;;;20.39
63009;BMP280;49099;28.428;-16.488;2023-02-01T16:29:19;98890.41;;;20.66
63009;BMP280;49099;28.428;-16.488;2023-02-01T16:31:48;98880.63;;;20.57
63009;BMP280;49099;28.428;-16.488;2023-02-01T16:34:16;98878.75;;;20.43
63009;BMP280;49099;28.428;-16.488;2023-02-01T16:36:47;98879.94;;;20.22
63009;BMP280;49099;28.428;-16.488;2023-02-01T16:39:19;98884.59;;;20.07
63009;BMP280;49099;28.428;-16.488;2023-02-01T16:41:47;98884.97;;;20.00
63009;BMP280;49099;28.428;-16.488;2023-02-01T16:44:14;98888.97;;;20.10
63009;BMP280;49099;28.428;-16.488;2023-02-01T16:46:44;98888.31;;;20.35
63009;BMP280;49099;28.428;-16.488;2023-02-01T16:49:23;98885.13;;;20.51
63009;BMP280;49099;28.428;-16.488;2023-02-01T16:51:57;98883.00;;;20.35
63009;BMP280;49099;28.428;-16.488;2023-02-01T16:54:25;98884.78;;;20.24
63009;BMP280;49099;28.428;-16.488;2023-02-01T16:56:53;98891.84;;;20.41